createdAt,value
2019-04-29T00:00:42.140Z,10.99
2019-04-29T00:01:42.122Z,10.91
2019-04-29T00:02:56.803Z,10.89
2019-04-29T00:03:42.158Z,10.91
2019-04-29T00:04:42.178Z,10.88
2019-04-29T00:05:56.865Z,10.79
2019-04-29T00:06:42.230Z,10.78
2019-04-29T00:07:42.241Z,10.84
2019-04-29T00:08:42.009Z,10.84
2019-04-29T00:09:42.276Z,10.88
2019-04-29T00:10:42.291Z,10.89
2019-04-29T00:11:42.311Z,10.89
2019-04-29T00:12:42.329Z,10.96
2019-04-29T00:13:42.452Z,10.88
2019-04-29T00:14:42.373Z,10.96
2019-04-29T00:15:42.394Z,10.88
2019-04-29T00:16:42.406Z,11.03
2019-04-29T00:17:57.090Z,10.97
2019-04-29T00:18:57.110Z,10.96
2019-04-29T00:19:42.517Z,10.94
2019-04-29T00:20:42.486Z,10.97
2019-04-29T00:21:42.502Z,10.96
2019-04-29T00:22:42.521Z,10.94
2019-04-29T00:24:42.559Z,10.85
2019-04-29T00:25:42.579Z,10.85
2019-04-29T00:26:42.598Z,10.88
2019-04-29T00:27:42.614Z,10.86
2019-04-29T00:28:42.639Z,10.89
2019-04-29T00:29:42.704Z,10.84
2019-04-29T00:30:42.674Z,10.94
2019-04-29T00:32:42.725Z,10.91
2019-04-29T00:33:42.748Z,10.73
2019-04-29T00:34:42.748Z,10.73
2019-04-29T00:35:42.769Z,10.64
2019-04-29T00:36:42.786Z,10.76
2019-04-29T00:37:57.469Z,10.66
2019-04-29T00:38:42.830Z,10.68
2019-04-29T00:39:42.847Z,10.67
2019-04-29T00:40:42.861Z,10.71
2019-04-29T00:41:42.886Z,10.48
2019-04-29T00:42:42.902Z,10.55
2019-04-29T00:43:42.924Z,10.45
2019-04-29T00:44:42.945Z,10.51
2019-04-29T00:45:42.971Z,10.51
2019-04-29T00:46:42.981Z,10.53
2019-04-29T00:47:42.745Z,10.38
2019-04-29T00:48:43.015Z,10.34
2019-04-29T00:49:43.033Z,10.52
2019-04-29T00:50:57.716Z,10.51
2019-04-29T00:51:43.071Z,10.51
2019-04-29T00:52:43.097Z,10.59
2019-04-29T00:53:57.819Z,10.52
2019-04-29T00:54:43.131Z,10.6
2019-04-29T00:55:43.149Z,10.56
2019-04-29T00:57:43.191Z,10.52
2019-04-29T00:58:43.202Z,10.44
2019-04-29T00:59:43.225Z,10.52
2019-04-29T01:00:43.242Z,10.51
2019-04-29T01:02:43.280Z,10.59
2019-04-29T01:03:45.972Z,10.51
2019-04-29T01:04:43.317Z,10.51
2019-04-29T01:05:43.345Z,10.51
2019-04-29T01:06:58.018Z,10.48
2019-04-29T01:07:43.373Z,10.51
2019-04-29T01:08:43.420Z,10.48
2019-04-29T01:09:58.104Z,10.34
2019-04-29T01:10:43.437Z,10.36
2019-04-29T01:11:43.447Z,10.45
2019-04-29T01:12:43.470Z,10.45
2019-04-29T01:13:43.487Z,10.47
2019-04-29T01:14:43.504Z,10.48
2019-04-29T01:15:43.525Z,10.41
2019-04-29T01:16:43.547Z,10.34
2019-04-29T01:17:43.561Z,10.29
2019-04-29T01:18:43.585Z,10.27
2019-04-29T01:19:43.606Z,10.25
2019-04-29T01:20:43.620Z,10.3
2019-04-29T01:21:43.640Z,10.29
2019-04-29T01:22:43.689Z,10.32
2019-04-29T01:23:43.690Z,10.25
2019-04-29T01:24:43.699Z,10.25
2019-04-29T01:25:58.393Z,10.26
2019-04-29T01:26:43.734Z,10.26
2019-04-29T01:27:43.750Z,10.26
2019-04-29T01:28:43.772Z,10.27
2019-04-29T01:29:43.790Z,10.34
2019-04-29T01:30:43.805Z,10.25
2019-04-29T01:31:43.839Z,10.27
2019-04-29T01:32:43.844Z,10.25
2019-04-29T01:33:43.862Z,10.18
2019-04-29T01:34:58.549Z,10.26
2019-04-29T01:35:43.902Z,10.27
2019-04-29T01:36:43.919Z,10.29
2019-04-29T01:37:58.666Z,10.3
2019-04-29T01:38:43.960Z,10.27
2019-04-29T01:40:58.658Z,10.25
2019-04-29T01:41:44.016Z,10.22
2019-04-29T01:42:44.032Z,10.18
2019-04-29T01:43:44.052Z,10.25
2019-04-29T01:44:44.070Z,10.22
2019-04-29T01:45:44.087Z,10.23
2019-04-29T01:46:44.105Z,10.18
2019-04-29T01:47:43.931Z,10.14
2019-04-29T01:48:44.146Z,10.2
2019-04-29T01:49:44.164Z,10.15
2019-04-29T01:50:44.180Z,10.09
2019-04-29T01:51:44.215Z,10.12
2019-04-29T01:52:58.884Z,10.07
2019-04-29T01:53:58.902Z,10.07
2019-04-29T01:54:44.290Z,10.05
2019-04-29T01:55:44.274Z,10.07
2019-04-29T01:56:44.294Z,10.08
2019-04-29T01:57:44.319Z,10.01
2019-04-29T01:58:44.335Z,10.04
2019-04-29T01:59:44.352Z,10.08
2019-04-29T02:00:44.124Z,10.01
2019-04-29T02:01:44.391Z,10.07
2019-04-29T02:03:44.434Z,9.94
2019-04-29T02:04:59.128Z,10.04
2019-04-29T02:05:44.522Z,9.94
2019-04-29T02:06:44.481Z,9.97
2019-04-29T02:07:44.502Z,9.97
2019-04-29T02:08:44.516Z,9.9
2019-04-29T02:09:44.540Z,9.96
2019-04-29T02:10:44.597Z,9.78
2019-04-29T02:11:44.579Z,9.83
2019-04-29T02:12:59.265Z,9.99
2019-04-29T02:13:44.613Z,9.89
2019-04-29T02:14:44.628Z,9.94
2019-04-29T02:15:44.648Z,9.96
2019-04-29T02:16:44.668Z,9.99
2019-04-29T02:18:44.704Z,9.93
2019-04-29T02:19:44.729Z,9.94
2019-04-29T02:20:44.741Z,9.79
2019-04-29T02:22:44.778Z,9.75
2019-04-29T02:23:44.551Z,9.79
2019-04-29T02:24:44.878Z,9.75
2019-04-29T02:25:44.834Z,9.81
2019-04-29T02:26:44.855Z,9.78
2019-04-29T02:27:44.873Z,9.89
2019-04-29T02:28:59.557Z,9.89
2019-04-29T02:29:44.907Z,9.89
2019-04-29T02:30:44.940Z,9.75
2019-04-29T02:31:59.651Z,9.81
2019-04-29T02:32:44.971Z,9.72
2019-04-29T02:33:45.094Z,9.87
2019-04-29T02:34:45.008Z,9.83
2019-04-29T02:35:59.689Z,9.9
2019-04-29T02:36:45.185Z,9.96
2019-04-29T02:37:45.063Z,9.9
2019-04-29T02:38:44.936Z,9.81
2019-04-29T02:39:44.857Z,9.86
2019-04-29T02:40:45.116Z,9.84
2019-04-29T02:41:45.140Z,9.76
2019-04-29T02:42:45.193Z,9.71
2019-04-29T02:43:45.180Z,9.79
2019-04-29T02:44:59.849Z,9.89
2019-04-29T02:45:45.212Z,9.86
2019-04-29T02:46:45.236Z,9.79
2019-04-29T02:47:45.253Z,9.58
2019-04-29T02:48:59.975Z,9.71
2019-04-29T02:49:45.324Z,9.71
2019-04-29T02:50:45.347Z,9.66
2019-04-29T02:51:45.330Z,9.69
2019-04-29T02:52:45.334Z,9.65
2019-04-29T02:53:45.368Z,9.72
2019-04-29T02:54:45.381Z,9.68
2019-04-29T02:55:45.396Z,9.69
2019-04-29T02:57:45.440Z,9.69
2019-04-29T02:58:45.475Z,9.65
2019-04-29T03:00:00.141Z,9.72
2019-04-29T03:01:00.155Z,9.79
2019-04-29T03:01:45.503Z,9.79
2019-04-29T03:02:45.529Z,9.74
2019-04-29T03:03:45.542Z,9.84
2019-04-29T03:04:45.558Z,9.81
2019-04-29T03:05:45.574Z,9.75
2019-04-29T03:06:45.601Z,9.83
2019-04-29T03:07:45.615Z,9.79
2019-04-29T03:08:45.646Z,9.79
2019-04-29T03:09:45.651Z,9.76
2019-04-29T03:10:45.688Z,9.86
2019-04-29T03:11:45.694Z,9.75
2019-04-29T03:12:45.716Z,9.86
2019-04-29T03:13:45.725Z,9.79
2019-04-29T03:14:45.747Z,9.81
2019-04-29T03:16:00.424Z,9.83
2019-04-29T03:16:45.819Z,9.78
2019-04-29T03:17:45.809Z,9.74
2019-04-29T03:18:45.826Z,9.83
2019-04-29T03:19:45.834Z,9.74
2019-04-29T03:20:45.898Z,9.84
2019-04-29T03:21:45.625Z,9.72
2019-04-29T03:22:45.902Z,9.74
2019-04-29T03:23:45.701Z,9.81
2019-04-29T03:24:45.937Z,9.75
2019-04-29T03:25:45.951Z,9.74
2019-04-29T03:26:45.981Z,9.78
2019-04-29T03:28:00.660Z,9.71
2019-04-29T03:28:46.023Z,9.83
2019-04-29T03:30:00.695Z,9.74
2019-04-29T03:30:46.196Z,9.75
2019-04-29T03:31:46.118Z,9.83
2019-04-29T03:32:46.088Z,9.9
2019-04-29T03:33:46.133Z,9.81
2019-04-29T03:34:46.122Z,9.81
2019-04-29T03:35:46.137Z,9.84
2019-04-29T03:36:46.157Z,9.84
2019-04-29T03:37:46.173Z,9.86
2019-04-29T03:38:46.292Z,9.71
2019-04-29T03:39:46.214Z,9.79
2019-04-29T03:40:46.233Z,9.86
2019-04-29T03:42:00.904Z,9.83
2019-04-29T03:42:46.265Z,9.91
2019-04-29T03:43:46.297Z,9.76
2019-04-29T03:44:46.298Z,9.9
2019-04-29T03:45:46.325Z,9.94
2019-04-29T03:48:01.021Z,9.93
2019-04-29T03:48:46.132Z,9.86
2019-04-29T03:49:46.399Z,9.9
2019-04-29T03:50:46.436Z,9.9
2019-04-29T03:51:46.431Z,9.93
2019-04-29T03:52:46.442Z,9.87
2019-04-29T03:53:46.546Z,9.99
2019-04-29T03:54:46.483Z,9.97
2019-04-29T03:55:46.505Z,9.99
2019-04-29T03:56:46.528Z,9.99
2019-04-29T03:57:46.550Z,9.93
2019-04-29T03:59:01.232Z,9.91
2019-04-29T04:00:01.262Z,9.96
2019-04-29T04:00:49.114Z,9.94
2019-04-29T04:01:46.126Z,9.93
2019-04-29T04:02:46.638Z,9.96
2019-04-29T04:04:01.307Z,9.83
2019-04-29T04:04:46.686Z,9.89
2019-04-29T04:05:46.690Z,9.83
2019-04-29T04:06:46.457Z,9.91
2019-04-29T04:07:46.737Z,9.93
2019-04-29T04:09:04.266Z,9.96
2019-04-29T04:09:46.765Z,9.96
2019-04-29T04:11:01.450Z,10.02
2019-04-29T04:11:46.807Z,9.97
2019-04-29T04:12:46.823Z,9.99
2019-04-29T04:13:46.836Z,9.97
2019-04-29T04:14:46.857Z,10.05
2019-04-29T04:15:46.929Z,9.89
2019-04-29T04:16:46.886Z,10.01
2019-04-29T04:17:46.932Z,9.97
2019-04-29T04:18:46.933Z,9.99
2019-04-29T04:20:01.615Z,10.07
2019-04-29T04:20:47.068Z,10.02
2019-04-29T04:21:46.982Z,10.01
2019-04-29T04:22:47.037Z,9.96
2019-04-29T04:24:47.073Z,10.17
2019-04-29T04:25:47.111Z,10.01
2019-04-29T04:26:47.074Z,10.18
2019-04-29T04:28:01.755Z,10.12
2019-04-29T04:29:01.772Z,10.05
2019-04-29T04:29:47.128Z,9.97
2019-04-29T04:31:06.103Z,10.15
2019-04-29T04:31:47.164Z,10.09
2019-04-29T04:32:47.193Z,10.22
2019-04-29T04:33:47.245Z,10.17
2019-04-29T04:36:47.262Z,10.29
2019-04-29T04:37:47.301Z,10.29
2019-04-29T04:38:47.293Z,10.23
2019-04-29T04:39:47.325Z,10.22
2019-04-29T04:40:47.331Z,10.18
2019-04-29T04:41:47.357Z,10.22
2019-04-29T04:42:47.376Z,10.23
2019-04-29T04:43:47.418Z,10.2
2019-04-29T04:44:47.410Z,10.25
2019-04-29T04:46:02.085Z,10.25
2019-04-29T04:46:47.440Z,10.22
2019-04-29T04:47:47.502Z,10.3
2019-04-29T04:48:47.314Z,10.29
2019-04-29T04:49:47.551Z,10.23
2019-04-29T04:51:02.191Z,10.22
2019-04-29T04:51:47.534Z,10.2
2019-04-29T04:52:47.557Z,10.3
2019-04-29T04:53:47.581Z,10.17
2019-04-29T04:54:47.360Z,10.22
2019-04-29T04:55:47.604Z,10.29
2019-04-29T04:56:47.623Z,10.25
2019-04-29T04:57:47.655Z,10.29
2019-04-29T04:58:47.686Z,10.36
2019-04-29T04:59:47.686Z,10.29
2019-04-29T05:00:47.715Z,10.42
2019-04-29T05:01:47.720Z,10.33
2019-04-29T05:02:47.738Z,10.22
2019-04-29T05:03:47.756Z,10.23
2019-04-29T05:04:47.771Z,10.26
2019-04-29T05:05:47.795Z,10.34
2019-04-29T05:06:47.810Z,10.45
2019-04-29T05:07:47.834Z,10.32
2019-04-29T05:08:47.850Z,10.32
2019-04-29T05:09:47.862Z,10.32
2019-04-29T05:10:47.891Z,10.34
2019-04-29T05:11:47.900Z,10.4
2019-04-29T05:12:47.927Z,10.3
2019-04-29T05:14:02.608Z,10.3
2019-04-29T05:14:47.959Z,10.36
2019-04-29T05:17:02.659Z,10.42
2019-04-29T05:17:48.017Z,10.4
2019-04-29T05:20:02.711Z,10.45
2019-04-29T05:20:48.067Z,10.34
2019-04-29T05:23:02.853Z,10.33
2019-04-29T05:24:48.151Z,10.34
2019-04-29T05:25:48.245Z,10.38
2019-04-29T05:26:48.178Z,10.45
2019-04-29T05:28:02.869Z,10.36
2019-04-29T05:28:48.216Z,10.34
2019-04-29T05:29:48.238Z,10.34
2019-04-29T05:30:48.254Z,10.48
2019-04-29T05:31:48.280Z,10.44
2019-04-29T05:32:48.291Z,10.36
2019-04-29T05:33:48.309Z,10.38
2019-04-29T05:34:51.725Z,10.33
2019-04-29T05:35:48.418Z,10.29
2019-04-29T05:36:48.365Z,10.33
2019-04-29T05:37:48.136Z,10.4
2019-04-29T05:39:03.072Z,10.44
2019-04-29T05:39:48.423Z,10.42
2019-04-29T05:40:48.190Z,10.44
2019-04-29T05:41:48.464Z,10.41
2019-04-29T05:42:52.471Z,10.4
2019-04-29T05:43:48.496Z,10.4
2019-04-29T05:44:48.516Z,10.41
2019-04-29T05:46:07.462Z,10.44
2019-04-29T05:46:48.578Z,10.52
2019-04-29T05:48:48.597Z,10.51
2019-04-29T05:50:56.399Z,10.66
2019-04-29T05:51:48.651Z,10.66
2019-04-29T05:52:49.842Z,10.44
2019-04-29T05:53:57.328Z,10.44
2019-04-29T05:55:04.075Z,10.36
2019-04-29T05:55:48.723Z,10.44
2019-04-29T05:56:48.738Z,10.45
2019-04-29T05:57:48.760Z,10.34
2019-04-29T05:58:48.775Z,10.41
2019-04-29T06:00:07.620Z,10.41
2019-04-29T06:00:48.812Z,10.48
2019-04-29T06:01:52.075Z,10.51
2019-04-29T06:02:48.848Z,10.51
2019-04-29T06:03:49.377Z,10.47
2019-04-29T06:04:52.282Z,10.41
2019-04-29T06:05:48.915Z,10.45
2019-04-29T06:06:48.929Z,10.36
2019-04-29T06:07:51.429Z,10.36
2019-04-29T06:08:48.967Z,10.38
2019-04-29T06:09:48.981Z,10.41
2019-04-29T06:11:03.664Z,10.34
2019-04-29T06:11:49.029Z,10.33
2019-04-29T06:12:49.484Z,10.3
2019-04-29T06:13:49.116Z,10.27
2019-04-29T06:14:49.083Z,10.25
2019-04-29T06:15:48.845Z,10.36
2019-04-29T06:16:49.108Z,10.38
2019-04-29T06:17:51.005Z,10.33
2019-04-29T06:18:49.247Z,10.38
2019-04-29T06:19:49.173Z,10.41
2019-04-29T06:21:49.207Z,10.41
2019-04-29T06:23:03.887Z,10.44
2019-04-29T06:23:48.996Z,10.47
2019-04-29T06:24:49.259Z,10.48
2019-04-29T06:26:03.960Z,10.6
2019-04-29T06:26:49.300Z,10.63
2019-04-29T06:27:49.335Z,10.6
2019-04-29T06:28:49.337Z,10.68
2019-04-29T06:29:49.355Z,10.66
2019-04-29T06:31:04.732Z,10.7
2019-04-29T06:31:49.390Z,10.68
2019-04-29T06:32:49.428Z,10.6
2019-04-29T06:34:05.077Z,10.66
2019-04-29T06:34:49.545Z,10.66
2019-04-29T06:36:49.242Z,10.6
2019-04-29T06:37:49.509Z,10.61
2019-04-29T06:39:04.185Z,10.6
2019-04-29T06:39:49.541Z,10.56
2019-04-29T06:40:49.571Z,10.61
2019-04-29T06:41:51.383Z,10.59
2019-04-29T06:42:53.300Z,10.61
2019-04-29T06:43:52.051Z,10.51
2019-04-29T06:44:54.098Z,10.51
2019-04-29T06:45:49.652Z,10.55
2019-04-29T06:46:54.397Z,10.6
2019-04-29T06:47:49.701Z,10.59
2019-04-29T06:49:49.738Z,10.64
2019-04-29T06:50:52.286Z,10.66
2019-04-29T06:51:49.766Z,10.66
2019-04-29T06:52:49.785Z,10.71
2019-04-29T06:53:52.626Z,10.7
2019-04-29T06:54:49.824Z,10.76
2019-04-29T06:55:49.847Z,10.73
2019-04-29T06:56:49.861Z,10.67
2019-04-29T06:58:04.545Z,10.71
2019-04-29T06:58:51.537Z,10.7
2019-04-29T06:59:54.673Z,10.7
2019-04-29T07:00:55.695Z,10.74
2019-04-29T07:01:49.971Z,10.76
2019-04-29T07:02:53.328Z,10.71
2019-04-29T07:03:50.002Z,10.64
2019-04-29T07:04:50.021Z,10.67
2019-04-29T07:06:04.702Z,10.7
2019-04-29T07:07:02.052Z,10.63
2019-04-29T07:07:50.067Z,10.68
2019-04-29T07:08:50.176Z,10.74
2019-04-29T07:09:50.111Z,10.7
2019-04-29T07:10:50.125Z,10.67
2019-04-29T07:11:50.151Z,10.74
2019-04-29T07:12:52.396Z,10.67
2019-04-29T07:14:04.844Z,10.67
2019-04-29T07:14:50.258Z,10.6
2019-04-29T07:15:52.698Z,10.63
2019-04-29T07:16:50.251Z,10.67
2019-04-29T07:19:10.626Z,10.66
2019-04-29T07:19:50.293Z,10.68
2019-04-29T07:20:50.529Z,10.74
2019-04-29T07:21:57.395Z,10.7
2019-04-29T07:22:50.355Z,10.78
2019-04-29T07:23:50.370Z,10.74
2019-04-29T07:24:50.386Z,10.74
2019-04-29T07:25:50.414Z,10.68
2019-04-29T07:27:05.089Z,10.7
2019-04-29T07:27:50.450Z,10.88
2019-04-29T07:29:08.004Z,10.86
2019-04-29T07:30:09.313Z,10.91
2019-04-29T07:31:50.524Z,10.85
2019-04-29T07:32:52.222Z,10.92
2019-04-29T07:33:53.523Z,10.92
2019-04-29T07:34:50.586Z,10.99
2019-04-29T07:35:53.030Z,11.09
2019-04-29T07:38:59.135Z,10.99
2019-04-29T07:39:50.674Z,10.99
2019-04-29T07:40:50.698Z,11.09
2019-04-29T07:42:50.733Z,11.03
2019-04-29T07:43:50.747Z,11.11
2019-04-29T07:44:56.441Z,11.17
2019-04-29T07:46:06.485Z,11.14
2019-04-29T07:47:04.460Z,11.11
2019-04-29T07:48:06.243Z,11.11
2019-04-29T07:49:05.640Z,11.07
2019-04-29T07:49:55.226Z,11.03
2019-04-29T07:50:50.886Z,11.04
2019-04-29T07:51:50.927Z,11.09
2019-04-29T07:52:55.784Z,11.15
2019-04-29T07:53:50.938Z,11.09
2019-04-29T07:54:58.470Z,11.11
2019-04-29T07:55:50.984Z,11.11
2019-04-29T07:56:51.002Z,11.02
2019-04-29T07:58:07.263Z,11.11
2019-04-29T07:58:53.444Z,11.07
2019-04-29T07:59:51.059Z,11.07
2019-04-29T08:01:05.741Z,10.99
2019-04-29T08:01:51.095Z,11.03
2019-04-29T08:02:51.112Z,11.07
2019-04-29T08:03:51.135Z,11.06
2019-04-29T08:04:51.149Z,10.96
2019-04-29T08:05:51.170Z,10.88
2019-04-29T08:07:05.858Z,10.92
2019-04-29T08:07:51.214Z,10.88
2019-04-29T08:09:09.875Z,10.82
2019-04-29T08:09:51.242Z,10.82
2019-04-29T08:11:00.797Z,10.99
2019-04-29T08:11:51.287Z,10.99
2019-04-29T08:12:51.303Z,10.85
2019-04-29T08:13:51.321Z,10.89
2019-04-29T08:14:53.267Z,10.88
2019-04-29T08:15:51.367Z,10.86
2019-04-29T08:16:51.385Z,10.89
2019-04-29T08:18:06.201Z,10.85
2019-04-29T08:18:56.160Z,10.89
2019-04-29T08:19:51.434Z,10.92
2019-04-29T08:20:51.451Z,10.89
2019-04-29T08:21:54.528Z,11
2019-04-29T08:22:51.492Z,10.99
2019-04-29T08:24:55.400Z,11.1
2019-04-29T08:25:57.289Z,11.1
2019-04-29T08:26:52.406Z,11.07
2019-04-29T08:27:51.600Z,11.09
2019-04-29T08:29:06.283Z,10.97
2019-04-29T08:29:51.624Z,11
2019-04-29T08:30:52.189Z,10.92
2019-04-29T08:31:56.669Z,10.86
2019-04-29T08:33:11.882Z,10.89
2019-04-29T08:33:53.289Z,11.03
2019-04-29T08:35:51.828Z,11.03
2019-04-29T08:36:51.794Z,11.02
2019-04-29T08:38:51.818Z,10.94
2019-04-29T08:40:55.108Z,11.04
2019-04-29T08:42:08.936Z,11.09
2019-04-29T08:42:51.881Z,11.15
2019-04-29T08:43:56.486Z,11.25
2019-04-29T08:44:54.565Z,11.49
2019-04-29T08:45:51.943Z,11.75
2019-04-29T08:46:56.655Z,11.75
2019-04-29T08:47:51.971Z,11.79
2019-04-29T08:49:11.461Z,11.82
2019-04-29T08:49:52.017Z,11.8
2019-04-29T08:50:52.033Z,11.86
2019-04-29T08:51:52.054Z,11.75
2019-04-29T08:52:52.073Z,11.72
2019-04-29T08:53:52.103Z,11.52
2019-04-29T08:54:58.147Z,11.52
2019-04-29T08:57:07.613Z,11.64
2019-04-29T08:57:52.167Z,11.72
2019-04-29T08:58:54.041Z,11.79
2019-04-29T09:00:06.874Z,12.04
2019-04-29T09:00:55.666Z,12.19
2019-04-29T09:01:52.003Z,12.2
2019-04-29T09:02:54.125Z,12.17
2019-04-29T09:03:57.919Z,12.28
2019-04-29T09:05:13.258Z,12.46
2019-04-29T09:06:09.689Z,12.82
2019-04-29T09:06:52.102Z,12.75
2019-04-29T09:07:59.191Z,13.03
2019-04-29T09:09:04.836Z,13.46
2019-04-29T09:09:55.981Z,13.2
2019-04-29T09:10:52.185Z,12.89
2019-04-29T09:11:54.135Z,13.12
2019-04-29T09:12:52.479Z,13.38
2019-04-29T09:13:52.495Z,13.19
2019-04-29T09:14:52.524Z,12.82
2019-04-29T09:15:52.558Z,12.57
2019-04-29T09:16:52.406Z,12.34
2019-04-29T09:17:52.585Z,12.12
2019-04-29T09:18:52.599Z,11.95
2019-04-29T09:19:52.631Z,11.64
2019-04-29T09:21:07.312Z,11.72
2019-04-29T09:22:52.710Z,11.72
2019-04-29T09:23:52.704Z,11.73
2019-04-29T09:25:09.012Z,11.79
2019-04-29T09:26:23.992Z,11.85
2019-04-29T09:26:52.763Z,11.95
2019-04-29T09:27:52.790Z,11.83
2019-04-29T09:28:54.759Z,11.7
2019-04-29T09:30:00.762Z,11.62
2019-04-29T09:31:52.628Z,11.69
2019-04-29T09:33:08.633Z,11.69
2019-04-29T09:34:08.410Z,11.7
2019-04-29T09:34:55.419Z,11.65
2019-04-29T09:36:09.477Z,11.82
2019-04-29T09:36:54.509Z,11.8
2019-04-29T09:37:58.337Z,11.98
2019-04-29T09:38:53.019Z,12.07
2019-04-29T09:40:07.751Z,12.05
2019-04-29T09:40:59.469Z,12.05
2019-04-29T09:41:52.827Z,12.01
2019-04-29T09:42:56.981Z,12.07
2019-04-29T09:43:53.123Z,12.02
2019-04-29T09:44:53.134Z,11.98
2019-04-29T09:45:58.619Z,12.04
2019-04-29T09:46:52.934Z,12.05
2019-04-29T09:47:53.198Z,12.1
2019-04-29T09:48:53.218Z,12.14
2019-04-29T09:49:53.242Z,12.21
2019-04-29T09:50:53.257Z,12.28
2019-04-29T09:51:53.275Z,12.27
2019-04-29T09:52:53.298Z,12.28
2019-04-29T09:53:53.315Z,12.39
2019-04-29T09:54:53.340Z,12.41
2019-04-29T09:55:53.363Z,12.37
2019-04-29T09:56:53.148Z,12.29
2019-04-29T09:57:53.399Z,12.37
2019-04-29T09:59:53.445Z,12.19
2019-04-29T10:00:53.459Z,12.31
2019-04-29T10:01:57.603Z,12.35
2019-04-29T10:02:53.499Z,12.49
2019-04-29T10:03:53.520Z,12.46
2019-04-29T10:05:01.568Z,12.67
2019-04-29T10:05:53.563Z,12.75
2019-04-29T10:06:53.590Z,12.68
2019-04-29T10:08:08.266Z,12.49
2019-04-29T10:08:53.629Z,12.45
2019-04-29T10:10:08.527Z,12.41
2019-04-29T10:10:53.674Z,12.41
2019-04-29T10:11:53.685Z,12.35
2019-04-29T10:12:56.385Z,12.45
2019-04-29T10:13:53.727Z,12.27
2019-04-29T10:15:55.767Z,12.37
2019-04-29T10:17:58.506Z,12.46
2019-04-29T10:18:53.830Z,12.54
2019-04-29T10:19:53.854Z,12.47
2019-04-29T10:20:53.923Z,12.45
2019-04-29T10:21:53.946Z,12.35
2019-04-29T10:22:58.143Z,12.42
2019-04-29T10:24:08.607Z,12.32
2019-04-29T10:24:53.965Z,12.37
2019-04-29T10:26:53.994Z,12.39
2019-04-29T10:27:54.020Z,12.47
2019-04-29T10:28:54.040Z,12.31
2019-04-29T10:30:10.390Z,12.38
2019-04-29T10:30:54.078Z,12.27
2019-04-29T10:32:54.148Z,12.2
2019-04-29T10:34:54.158Z,12.41
2019-04-29T10:35:54.181Z,12.28
2019-04-29T10:36:57.183Z,12.16
2019-04-29T10:37:54.218Z,12.38
2019-04-29T10:38:54.239Z,12.59
2019-04-29T10:40:13.929Z,12.79
2019-04-29T10:40:56.435Z,12.64
2019-04-29T10:42:54.332Z,12.6
2019-04-29T10:43:58.551Z,12.57
2019-04-29T10:44:54.379Z,12.57
2019-04-29T10:47:09.075Z,12.74
2019-04-29T10:48:54.455Z,12.75
2019-04-29T10:49:54.741Z,12.59
2019-04-29T10:50:57.063Z,12.37
2019-04-29T10:51:57.883Z,12.52
2019-04-29T10:52:54.528Z,12.67
2019-04-29T10:53:55.908Z,12.57
2019-04-29T10:54:59.529Z,12.68
2019-04-29T10:56:09.493Z,12.53
2019-04-29T10:56:54.361Z,12.68
2019-04-29T10:57:56.178Z,12.77
2019-04-29T10:58:54.650Z,12.77
2019-04-29T11:00:09.760Z,12.93
2019-04-29T11:00:59.916Z,12.83
2019-04-29T11:02:13.966Z,12.64
2019-04-29T11:02:55.978Z,12.67
2019-04-29T11:04:00.676Z,12.56
2019-04-29T11:04:54.775Z,12.45
2019-04-29T11:06:05.535Z,12.52
2019-04-29T11:06:54.578Z,12.56
2019-04-29T11:07:58.049Z,12.64
2019-04-29T11:08:54.857Z,12.56
2019-04-29T11:09:55.904Z,12.62
2019-04-29T11:11:22.074Z,12.56
2019-04-29T11:11:54.673Z,12.64
2019-04-29T11:12:54.941Z,12.74
2019-04-29T11:13:57.498Z,12.83
2019-04-29T11:14:54.986Z,12.85
2019-04-29T11:15:56.064Z,12.89
2019-04-29T11:16:55.039Z,12.79
2019-04-29T11:18:06.045Z,13.03
2019-04-29T11:18:59.678Z,13.12
2019-04-29T11:19:55.091Z,12.87
2019-04-29T11:20:58.821Z,12.75
2019-04-29T11:22:55.153Z,12.87
2019-04-29T11:23:59.200Z,12.96
2019-04-29T11:24:55.189Z,13.17
2019-04-29T11:25:56.233Z,13.22
2019-04-29T11:26:54.983Z,13.1
2019-04-29T11:27:58.210Z,13.03
2019-04-29T11:28:57.235Z,12.82
2019-04-29T11:29:58.441Z,12.68
2019-04-29T11:30:55.319Z,12.54
2019-04-29T11:32:13.656Z,12.6
2019-04-29T11:33:55.387Z,12.79
2019-04-29T11:34:58.210Z,12.92
2019-04-29T11:36:55.191Z,13.19
2019-04-29T11:38:02.444Z,13.14
2019-04-29T11:39:13.773Z,13.22
2019-04-29T11:39:59.433Z,13.22
2019-04-29T11:40:55.529Z,13.2
2019-04-29T11:42:01.993Z,13.12
2019-04-29T11:43:15.423Z,13.08
2019-04-29T11:43:57.456Z,12.9
2019-04-29T11:45:01.789Z,12.83
2019-04-29T11:45:55.627Z,13.03
2019-04-29T11:46:55.402Z,13.15
2019-04-29T11:49:55.709Z,12.92
2019-04-29T11:50:59.684Z,13.07
2019-04-29T11:52:14.043Z,13.23
2019-04-29T11:52:58.052Z,13.25
2019-04-29T11:53:55.799Z,13.38
2019-04-29T11:54:55.813Z,13.63
2019-04-29T11:55:59.813Z,13.85
2019-04-29T11:56:55.612Z,13.75
2019-04-29T11:57:55.875Z,13.75
2019-04-29T11:59:10.627Z,13.87
2019-04-29T11:59:55.926Z,13.88
2019-04-29T12:00:56.959Z,13.99
2019-04-29T12:02:55.988Z,14.35
2019-04-29T12:04:00.999Z,14.45
2019-04-29T12:04:56.030Z,14.51
2019-04-29T12:05:56.047Z,14.57
2019-04-29T12:07:00.953Z,14.72
2019-04-29T12:08:57.899Z,14.45
2019-04-29T12:09:56.154Z,14.52
2019-04-29T12:11:11.416Z,14.64
2019-04-29T12:12:12.679Z,14.95
2019-04-29T12:12:56.330Z,15.09
2019-04-29T12:13:58.825Z,14.89
2019-04-29T12:15:13.579Z,14.65
2019-04-29T12:15:56.261Z,14.64
2019-04-29T12:16:59.617Z,14.37
2019-04-29T12:18:56.329Z,14.28
2019-04-29T12:19:56.496Z,14.54
2019-04-29T12:20:56.367Z,14.64
2019-04-29T12:21:56.399Z,14.77
2019-04-29T12:24:11.579Z,14.86
2019-04-29T12:24:56.458Z,14.89
2019-04-29T12:26:11.140Z,14.92
2019-04-29T12:26:56.595Z,15.1
2019-04-29T12:28:20.834Z,15.07
2019-04-29T12:28:56.544Z,15.11
2019-04-29T12:30:02.028Z,15.21
2019-04-29T12:31:12.970Z,15.31
2019-04-29T12:31:56.362Z,15.35
2019-04-29T12:33:03.288Z,15.27
2019-04-29T12:33:56.761Z,14.91
2019-04-29T12:34:56.672Z,14.77
2019-04-29T12:36:03.132Z,14.7
2019-04-29T12:37:01.140Z,14.94
2019-04-29T12:38:00.585Z,14.84
2019-04-29T12:38:56.581Z,14.58
2019-04-29T12:39:59.560Z,14.95
2019-04-29T12:40:59.999Z,15.1
2019-04-29T12:42:00.508Z,15.25
2019-04-29T12:42:59.871Z,15.21
2019-04-29T12:44:02.008Z,15.21
2019-04-29T12:46:56.936Z,15.28
2019-04-29T12:47:56.956Z,15.38
2019-04-29T12:48:56.985Z,15.56
2019-04-29T12:49:57.002Z,15.8
2019-04-29T12:51:02.195Z,15.68
2019-04-29T12:51:57.047Z,15.68
2019-04-29T12:52:57.066Z,15.74
2019-04-29T12:53:57.089Z,15.96
2019-04-29T12:54:56.858Z,16.38
2019-04-29T12:55:58.607Z,16.14
2019-04-29T12:56:57.161Z,16.3
2019-04-29T12:57:57.238Z,16.57
2019-04-29T12:59:02.603Z,16.71
2019-04-29T13:02:04.808Z,16.63
2019-04-29T13:03:07.038Z,16.38
2019-04-29T13:04:03.544Z,16.41
2019-04-29T13:05:03.576Z,16.48
2019-04-29T13:06:09.555Z,16.58
2019-04-29T13:07:06.549Z,16.61
2019-04-29T13:09:19.958Z,16.27
2019-04-29T13:10:09.494Z,16
2019-04-29T13:11:19.019Z,16.04
2019-04-29T13:12:22.771Z,16.2
2019-04-29T13:13:03.744Z,16.25
2019-04-29T13:14:21.420Z,16.33
2019-04-29T13:15:18.451Z,16.35
2019-04-29T13:16:03.819Z,16.52
2019-04-29T13:17:16.856Z,16.78
2019-04-29T13:18:22.966Z,16.82
2019-04-29T13:19:24.999Z,16.78
2019-04-29T13:20:13.543Z,16.6
2019-04-29T13:21:14.964Z,16.53
2019-04-29T13:22:04.007Z,16.53
2019-04-29T13:23:53.491Z,16.53
2019-04-29T13:24:30.740Z,16.7
2019-04-29T13:26:36.966Z,16.89
2019-04-29T13:27:31.437Z,16.96
2019-04-29T13:29:36.085Z,16.67
2019-04-29T13:30:29.828Z,16.86
2019-04-29T13:31:42.984Z,16.85
2019-04-29T13:32:38.053Z,16.71
2019-04-29T13:33:29.898Z,16.89
2019-04-29T13:34:36.577Z,16.85
2019-04-29T13:35:29.940Z,16.56
2019-04-29T13:36:44.627Z,16.3
2019-04-29T13:37:29.985Z,16.23
2019-04-29T13:38:30.009Z,16.09
2019-04-29T13:39:44.113Z,16.33
2019-04-29T13:40:32.912Z,16.41
2019-04-29T13:41:30.842Z,16.53
2019-04-29T13:42:30.114Z,16.7
2019-04-29T13:43:37.704Z,16.64
2019-04-29T13:44:30.144Z,16.58
2019-04-29T13:45:31.199Z,16.75
2019-04-29T13:46:30.193Z,16.91
2019-04-29T13:47:34.139Z,17
2019-04-29T13:48:55.117Z,17.07
2019-04-29T13:49:30.331Z,17.08
2019-04-29T13:50:43.953Z,17
2019-04-29T13:51:40.550Z,16.81
2019-04-29T13:52:44.988Z,16.81
2019-04-29T13:53:30.429Z,16.88
2019-04-29T13:54:30.374Z,16.85
2019-04-29T13:56:11.464Z,16.76
2019-04-29T13:57:15.567Z,16.98
2019-04-29T13:57:59.797Z,17.11
2019-04-29T13:59:18.151Z,17.15
2019-04-29T13:59:59.837Z,17.19